Time;durP1;ratioP1;P1;durP2;ratioP2;P2;SDS_P1;SDS_P2;PMS_P1;PMS_P2;Temp;Humidity;BMP_temperature;BMP_pressure;BME280_temperature;BME280_humidity;BME280_pressure;Samples;Min_cycle;Max_cycle;Signal;HPM_P1;HPM_P2
2021/05/14 00:01:24;;;;;;;;;;;;;;;20.95;39.38;99047.87;4417601;32;19997;-51
2021/05/14 00:03:50;;;;;;;;;;;;;;;20.97;39.43;99045.19;4405391;32;19981;-47
2021/05/14 00:06:16;;;;;;;;;;;;;;;21.00;39.21;99053.12;4402714;32;20309;-50
2021/05/14 00:08:41;;;;;;;;;;;;;;;20.96;39.26;99049.63;4412322;32;19950;-51
2021/05/14 00:11:07;;;;;;;;;;;;;;;20.95;39.40;99047.87;4417798;32;19965;-50
2021/05/14 00:13:33;;;;;;;;;;;;;;;20.93;39.31;99049.69;4415689;32;19949;-50
2021/05/14 00:15:59;;;;;;;;;;;;;;;20.97;39.14;99046.09;4417320;32;19950;-51
2021/05/14 00:18:25;;;;;;;;;;;;;;;20.96;39.26;99054.94;4416914;32;20004;-50
2021/05/14 00:20:51;;;;;;;;;;;;;;;20.96;39.29;99052.28;4417566;32;20361;-50
2021/05/14 00:23:17;;;;;;;;;;;;;;;20.94;39.48;99056.72;4411681;32;19976;-47
2021/05/14 00:25:43;;;;;;;;;;;;;;;20.96;39.30;99049.63;4402510;32;19973;-50
2021/05/14 00:28:09;;;;;;;;;;;;;;;20.90;39.46;99057.63;4411895;32;19958;-50
2021/05/14 00:30:35;;;;;;;;;;;;;;;20.90;39.41;99060.28;4417354;32;19962;-50
2021/05/14 00:33:00;;;;;;;;;;;;;;;20.90;39.29;99057.63;4414486;32;19950;-48
2021/05/14 00:35:26;;;;;;;;;;;;;;;20.86;39.55;99053.28;4402393;32;19959;-52
2021/05/14 00:37:52;;;;;;;;;;;;;;;20.84;39.59;99049.78;4404792;32;20007;-48
2021/05/14 00:40:18;;;;;;;;;;;;;;;20.85;39.49;99051.53;4416292;32;20431;-45
2021/05/14 00:42:44;;;;;;;;;;;;;;;20.88;39.35;99056.78;4416846;32;19954;-51
2021/05/14 00:45:10;;;;;;;;;;;;;;;20.89;39.36;99061.16;4401973;32;19959;-48
2021/05/14 00:47:36;;;;;;;;;;;;;;;20.81;39.57;99055.06;4402750;32;19942;-48
2021/05/14 00:50:02;;;;;;;;;;;;;;;20.79;39.60;99049.78;4415952;32;19950;-51
2021/05/14 00:52:28;;;;;;;;;;;;;;;20.81;39.11;99049.78;4416702;32;20252;-47
2021/05/14 00:54:54;;;;;;;;;;;;;;;20.80;39.50;99048.87;4403684;32;20359;-49
2021/05/14 00:57:20;;;;;;;;;;;;;;;20.81;39.51;99055.06;4402204;32;20352;-50
2021/05/14 00:59:45;;;;;;;;;;;;;;;20.81;39.46;99052.41;4412461;32;19950;-50
2021/05/14 01:02:11;;;;;;;;;;;;;;;20.87;38.77;99055.03;4416698;32;19965;-51
2021/05/14 01:04:37;;;;;;;;;;;;;;;20.85;39.28;99051.53;4417238;32;19965;-49
2021/05/14 01:07:03;;;;;;;;;;;;;;;20.77;39.56;99049.78;4417141;32;20257;-53
2021/05/14 01:09:29;;;;;;;;;;;;;;;20.81;39.42;99047.13;4407780;32;19950;-51
2021/05/14 01:11:55;;;;;;;;;;;;;;;20.83;39.47;99045.38;4402201;32;19993;-48
2021/05/14 01:14:21;;;;;;;;;;;;;;;20.83;39.32;99040.94;4408056;32;19946;-50
2021/05/14 01:16:47;;;;;;;;;;;;;;;20.78;39.48;99046.25;4417380;32;19946;-50
2021/05/14 01:19:13;;;;;;;;;;;;;;;20.78;39.28;99040.94;4410414;32;19954;-51
2021/05/14 01:21:38;;;;;;;;;;;;;;;20.78;39.42;99034.81;4402282;32;19963;-49
2021/05/14 01:24:04;;;;;;;;;;;;;;;20.78;38.90;99046.25;4405887;32;19964;-50
2021/05/14 01:26:30;;;;;;;;;;;;;;;20.75;39.54;99034.84;4417301;32;19964;-50
2021/05/14 01:28:56;;;;;;;;;;;;;;;20.75;39.31;99046.28;4413345;32;19954;-47
2021/05/14 01:31:22;;;;;;;;;;;;;;;20.73;39.32;99042.78;4401889;32;20092;-50
2021/05/14 01:33:48;;;;;;;;;;;;;;;20.74;39.40;99044.53;4415832;32;19967;-50
2021/05/14 01:36:14;;;;;;;;;;;;;;;20.72;38.83;99045.44;4416789;32;19968;-50
2021/05/14 01:38:40;;;;;;;;;;;;;;;20.73;39.54;99045.44;4416094;32;19958;-48
2021/05/14 01:41:06;;;;;;;;;;;;;;;20.68;39.10;99036.69;4401406;32;20609;-50
2021/05/14 01:43:32;;;;;;;;;;;;;;;20.70;39.29;99037.53;4401730;32;19953;-49
2021/05/14 01:45:58;;;;;;;;;;;;;;;20.74;39.30;99038.34;4415797;32;19976;-48
2021/05/14 01:48:23;;;;;;;;;;;;;;;20.69;39.30;99038.44;4416830;32;19965;-49
2021/05/14 01:50:49;;;;;;;;;;;;;;;20.67;39.38;99032.25;4403404;32;20252;-49
2021/05/14 01:53:15;;;;;;;;;;;;;;;20.69;39.56;99043.72;4401502;32;19990;-51
2021/05/14 01:55:41;;;;;;;;;;;;;;;20.67;39.51;99037.53;4412974;32;20565;-48
2021/05/14 01:58:07;;;;;;;;;;;;;;;20.73;39.32;99037.50;4416137;32;19947;-51
2021/05/14 02:00:33;;;;;;;;;;;;;;;20.69;39.35;99043.72;4406190;32;20428;-50
2021/05/14 02:02:59;;;;;;;;;;;;;;;20.71;39.02;99049.88;4401644;32;19969;-49
2021/05/14 02:05:25;;;;;;;;;;;;;;;20.66;39.45;99050.81;4415782;32;19962;-51
2021/05/14 02:07:51;;;;;;;;;;;;;;;20.69;39.28;99046.38;4416495;32;19950;-49
2021/05/14 02:10:17;;;;;;;;;;;;;;;20.70;39.31;99049.88;4407816;32;19947;-49
2021/05/14 02:12:43;;;;;;;;;;;;;;;20.69;39.55;99050.75;4401765;32;20295;-50
2021/05/14 02:15:08;;;;;;;;;;;;;;;20.64;39.22;99048.16;4406922;32;19961;-48
2021/05/14 02:17:34;;;;;;;;;;;;;;;20.62;39.31;99047.31;4417094;32;20274;-46
2021/05/14 02:20:00;;;;;;;;;;;;;;;20.60;39.47;99051.75;4415087;32;19954;-51
2021/05/14 02:22:26;;;;;;;;;;;;;;;20.64;38.87;99048.16;4417387;32;19999;-48
2021/05/14 02:24:52;;;;;;;;;;;;;;;20.64;39.49;99042.88;4417260;32;20029;-49
2021/05/14 02:27:18;;;;;;;;;;;;;;;20.63;39.34;99046.41;4417365;32;19958;-49
2021/05/14 02:29:46;;;;;;;;;;;;;;;20.64;39.24;99043.75;4416132;32;19984;-51
2021/05/14 02:32:12;;;;;;;;;;;;;;;20.64;39.13;99050.81;4417716;32;19949;-47
2021/05/14 02:34:37;;;;;;;;;;;;;;;20.70;38.85;99048.13;4415461;32;19972;-48
2021/05/14 02:37:03;;;;;;;;;;;;;;;20.69;38.60;99046.38;4416133;32;19957;-48
2021/05/14 02:39:29;;;;;;;;;;;;;;;20.67;38.39;99045.47;4416929;32;20306;-45
2021/05/14 02:41:55;;;;;;;;;;;;;;;20.60;39.15;99052.59;4419981;32;19977;-48
2021/05/14 02:44:21;;;;;;;;;;;;;;;20.66;38.88;99046.38;4418921;32;19961;-51
2021/05/14 02:46:47;;;;;;;;;;;;;;;20.62;39.10;99053.47;4419586;32;20013;-51
2021/05/14 02:49:13;;;;;;;;;;;;;;;20.64;38.93;99043.75;4418013;32;20098;-49
2021/05/14 02:51:39;;;;;;;;;;;;;;;20.69;38.33;99040.19;4419339;32;19951;-48
2021/05/14 02:54:05;;;;;;;;;;;;;;;20.72;38.43;99041.03;4418708;32;19993;-49
2021/05/14 02:56:31;;;;;;;;;;;;;;;20.67;38.71;99044.62;4419305;32;20341;-52
2021/05/14 02:58:57;;;;;;;;;;;;;;;20.64;38.65;99048.16;4418798;32;19972;-51
2021/05/14 03:01:23;;;;;;;;;;;;;;;20.59;39.38;99042.06;4418474;32;20041;-50
2021/05/14 03:03:49;;;;;;;;;;;;;;;20.63;38.64;99044.66;4418323;32;19986;-48
2021/05/14 03:06:15;;;;;;;;;;;;;;;20.58;38.91;99046.44;4417390;32;19974;-52
2021/05/14 03:08:40;;;;;;;;;;;;;;;20.58;38.73;99043.81;4418802;32;19969;-52
2021/05/14 03:11:06;;;;;;;;;;;;;;;20.59;38.81;99045.56;4411802;32;19973;-51
2021/05/14 03:13:32;;;;;;;;;;;;;;;20.59;38.72;99044.69;4419201;32;19950;-50
2021/05/14 03:15:58;;;;;;;;;;;;;;;20.67;38.38;99042.84;4419367;32;20323;-47
2021/05/14 03:18:24;;;;;;;;;;;;;;;20.64;39.10;99042.88;4417806;32;19966;-52
2021/05/14 03:20:50;;;;;;;;;;;;;;;20.60;38.62;99044.66;4418979;32;19981;-49
2021/05/14 03:23:16;;;;;;;;;;;;;;;20.60;38.63;99042.03;4419236;32;20019;-51
2021/05/14 03:25:42;;;;;;;;;;;;;;;20.60;38.65;99041.16;4419207;32;19973;-50
2021/05/14 03:28:08;;;;;;;;;;;;;;;20.67;38.36;99044.62;4419114;32;19981;-47
2021/05/14 03:30:33;;;;;;;;;;;;;;;20.59;39.00;99050.00;4418989;32;19987;-49
2021/05/14 03:32:59;;;;;;;;;;;;;;;20.58;38.88;99045.59;4419377;32;19973;-50
2021/05/14 03:35:25;;;;;;;;;;;;;;;20.59;39.06;99039.41;4419594;32;19950;-52
2021/05/14 03:37:51;;;;;;;;;;;;;;;20.67;38.70;99041.97;4405387;32;19959;-51
2021/05/14 03:40:32;;;;;;;;;;;;;;;20.61;38.54;99043.78;4403230;32;20302;-51
2021/05/14 03:42:58;;;;;;;;;;;;;;;20.57;38.57;99038.56;4418970;32;19956;-51
2021/05/14 03:45:24;;;;;;;;;;;;;;;20.62;38.23;99034.97;4418976;32;19953;-48
2021/05/14 03:47:50;;;;;;;;;;;;;;;20.69;38.54;99041.06;4418812;32;19966;-50
2021/05/14 03:50:16;;;;;;;;;;;;;;;20.62;38.85;99037.62;4418903;32;19981;-49
2021/05/14 03:52:42;;;;;;;;;;;;;;;20.62;38.66;99042.00;4406506;32;19957;-52
2021/05/14 03:55:08;;;;;;;;;;;;;;;20.63;38.85;99041.13;4403021;32;20295;-49
2021/05/14 03:57:33;;;;;;;;;;;;;;;20.56;38.91;99039.41;4414262;32;19966;-49
2021/05/14 03:59:59;;;;;;;;;;;;;;;20.50;38.87;99043.03;4418592;32;19974;-47
2021/05/14 04:02:25;;;;;;;;;;;;;;;20.51;38.82;99042.13;4408817;32;19950;-48
2021/05/14 04:04:52;;;;;;;;;;;;;;;20.52;38.82;99038.59;4403448;32;19954;-50
2021/05/14 04:07:19;;;;;;;;;;;;;;;20.56;39.04;99039.41;4411432;32;19987;-47
2021/05/14 04:09:59;;;;;;;;;;;;;;;20.52;38.79;99037.69;4418005;32;19950;-49
2021/05/14 04:15:06;;;;;;;;;;;;;;;20.60;38.41;99035.88;4406486;32;19985;-50
2021/05/14 04:17:32;;;;;;;;;;;;;;;20.62;38.42;99039.38;4410451;32;19987;-50
2021/05/14 04:19:59;;;;;;;;;;;;;;;20.53;38.68;99037.69;4403415;32;19962;-46
2021/05/14 04:22:25;;;;;;;;;;;;;;;20.50;38.88;99041.25;4410569;32;20330;-51
2021/05/14 04:24:50;;;;;;;;;;;;;;;20.49;38.56;99044.78;4418730;32;19960;-48
2021/05/14 04:27:17;;;;;;;;;;;;;;;20.61;38.57;99042.91;4412943;32;19954;-50
2021/05/14 04:29:43;;;;;;;;;;;;;;;20.64;38.42;99048.16;4403026;32;19977;-50
2021/05/14 04:32:09;;;;;;;;;;;;;;;20.59;38.50;99044.69;4407619;32;19946;-50
2021/05/14 04:34:35;;;;;;;;;;;;;;;20.59;38.50;99047.34;4417516;32;19953;-52
2021/05/14 04:37:01;;;;;;;;;;;;;;;20.58;38.49;99051.75;4415268;32;19966;-50
2021/05/14 04:39:27;;;;;;;;;;;;;;;20.56;38.73;99053.53;4402252;32;19965;-49
2021/05/14 04:41:53;;;;;;;;;;;;;;;20.57;38.87;99051.78;4404912;32;19938;-49
2021/05/14 04:44:19;;;;;;;;;;;;;;;20.55;38.90;99053.53;4416797;32;20304;-48
2021/05/14 04:46:44;;;;;;;;;;;;;;;20.52;38.73;99048.28;4417257;32;19954;-51
2021/05/14 04:49:10;;;;;;;;;;;;;;;20.46;39.18;99049.22;4417225;32;19945;-51
2021/05/14 04:51:36;;;;;;;;;;;;;;;20.48;39.07;99053.59;4418586;32;19998;-46
2021/05/14 04:54:02;;;;;;;;;;;;;;;20.53;38.95;99052.66;4416459;32;20009;-52
2021/05/14 04:56:28;;;;;;;;;;;;;;;20.49;38.52;99047.41;4418421;32;19965;-50
2021/05/14 04:58:54;;;;;;;;;;;;;;;20.46;38.53;99049.22;4415612;32;19934;-52
2021/05/14 05:01:20;;;;;;;;;;;;;;;20.45;38.81;99051.00;4417686;32;20076;-52
2021/05/14 05:03:46;;;;;;;;;;;;;;;20.42;38.99;99052.78;4417938;32;19982;-51
2021/05/14 05:06:12;;;;;;;;;;;;;;;20.44;38.96;99049.25;4417658;32;19960;-47
2021/05/14 05:08:38;;;;;;;;;;;;;;;20.44;38.84;99046.59;4413904;32;20008;-49
2021/05/14 05:11:04;;;;;;;;;;;;;;;20.45;38.99;99043.06;4416015;32;19962;-51
2021/05/14 05:13:29;;;;;;;;;;;;;;;20.48;38.81;99048.31;4417090;32;20282;-51
2021/05/14 05:15:55;;;;;;;;;;;;;;;20.54;38.51;99051.78;4414373;32;19988;-48
2021/05/14 05:18:21;;;;;;;;;;;;;;;20.59;38.48;99055.28;4408351;32;20014;-48
2021/05/14 05:20:47;;;;;;;;;;;;;;;20.58;38.54;99057.03;4416204;32;19951;-53
2021/05/14 05:23:13;;;;;;;;;;;;;;;20.56;38.67;99056.16;4416401;32;20367;-51
2021/05/14 05:25:39;;;;;;;;;;;;;;;20.52;39.04;99059.75;4417293;32;19933;-51
2021/05/14 05:28:05;;;;;;;;;;;;;;;20.48;38.78;99066.81;4416052;32;20268;-52
2021/05/14 05:30:31;;;;;;;;;;;;;;;20.49;38.51;99065.94;4416253;32;20316;-53
2021/05/14 05:32:57;;;;;;;;;;;;;;;20.50;38.93;99070.31;4416135;32;20001;-50
2021/05/14 05:35:23;;;;;;;;;;;;;;;20.53;38.74;99076.47;4417114;32;20032;-51
2021/05/14 05:37:48;;;;;;;;;;;;;;;20.48;39.04;99080.03;4416438;32;19989;-50
2021/05/14 05:40:15;;;;;;;;;;;;;;;20.52;38.92;99075.62;4415535;32;19950;-50
2021/05/14 05:42:40;;;;;;;;;;;;;;;20.52;38.98;99083.53;4417189;32;19949;-51
2021/05/14 05:45:06;;;;;;;;;;;;;;;20.53;39.12;99084.41;4416882;32;20008;-47
2021/05/14 05:47:34;;;;;;;;;;;;;;;20.52;38.98;99090.59;4416908;32;19976;-49
2021/05/14 05:50:00;;;;;;;;;;;;;;;20.56;38.83;99097.59;4417071;32;19958;-48
2021/05/14 05:52:26;;;;;;;;;;;;;;;20.54;38.67;99091.44;4417052;32;20001;-52
2021/05/14 05:54:52;;;;;;;;;;;;;;;20.55;38.79;99096.75;4417122;32;19950;-47
2021/05/14 05:57:18;;;;;;;;;;;;;;;20.54;38.73;99096.75;4416603;32;19950;-51
2021/05/14 05:59:44;;;;;;;;;;;;;;;20.58;38.77;99096.69;4415946;32;19973;-51
2021/05/14 06:02:10;;;;;;;;;;;;;;;20.58;38.95;99096.69;4410563;32;19954;-48
2021/05/14 06:04:36;;;;;;;;;;;;;;;20.58;38.90;99103.78;4411972;32;19954;-51
2021/05/14 06:07:02;;;;;;;;;;;;;;;20.59;38.82;99097.59;4413394;32;20362;-50
2021/05/14 06:09:28;;;;;;;;;;;;;;;20.59;38.66;99097.59;4403711;32;19958;-50
2021/05/14 06:11:54;;;;;;;;;;;;;;;20.64;38.71;99101.06;4409299;32;19951;-49
2021/05/14 06:14:20;;;;;;;;;;;;;;;20.68;38.62;99105.47;4413301;32;19970;-52
2021/05/14 06:16:46;;;;;;;;;;;;;;;20.70;38.57;99111.59;4418332;32;20356;-50
2021/05/14 06:21:48;;;;;;;;;;;;;;;20.72;38.77;99104.53;4416965;32;19961;-52
2021/05/14 06:24:14;;;;;;;;;;;;;;;20.70;38.71;99103.66;4411744;32;19950;-51
2021/05/14 06:26:40;;;;;;;;;;;;;;;20.72;38.58;99104.53;4403542;32;19988;-52
2021/05/14 06:29:06;;;;;;;;;;;;;;;20.74;38.61;99115.97;4405694;32;20001;-51
2021/05/14 06:31:32;;;;;;;;;;;;;;;20.74;38.59;99126.53;4418451;32;19954;-50
2021/05/14 06:33:58;;;;;;;;;;;;;;;20.79;38.51;99129.16;4418561;32;19966;-52
2021/05/14 06:36:24;;;;;;;;;;;;;;;20.79;38.48;99130.00;4416982;32;19965;-54
2021/05/14 06:38:50;;;;;;;;;;;;;;;20.80;38.54;99136.19;4417035;32;19974;-53
2021/05/14 06:41:16;;;;;;;;;;;;;;;20.83;38.52;99128.25;4418534;32;19994;-53
2021/05/14 06:43:42;;;;;;;;;;;;;;;20.86;38.45;99135.28;4417217;32;19980;-52
2021/05/14 06:46:08;;;;;;;;;;;;;;;20.86;38.48;99127.34;4414532;32;20001;-51
2021/05/14 06:48:34;;;;;;;;;;;;;;;20.87;38.49;99131.75;4418336;32;19950;-51
2021/05/14 06:51:00;;;;;;;;;;;;;;;20.86;38.54;99130.00;4403846;32;19988;-50
2021/05/14 06:53:26;;;;;;;;;;;;;;;20.88;38.55;99136.16;4402261;32;19989;-52
2021/05/14 06:55:52;;;;;;;;;;;;;;;20.86;38.57;99133.50;4415392;32;19950;-51
2021/05/14 06:58:18;;;;;;;;;;;;;;;20.90;38.51;99140.56;4413969;32;19954;-49
2021/05/14 07:00:44;;;;;;;;;;;;;;;20.89;38.56;99135.25;4405611;32;20013;-51
2021/05/14 07:03:10;;;;;;;;;;;;;;;20.91;38.59;99133.47;4411478;32;19958;-53
2021/05/14 07:05:35;;;;;;;;;;;;;;;20.92;38.56;99129.94;4416229;32;20001;-49
2021/05/14 07:08:01;;;;;;;;;;;;;;;20.90;38.64;99137.91;4417843;32;19964;-52
2021/05/14 07:10:28;;;;;;;;;;;;;;;20.90;38.63;99132.63;4407804;32;20081;-51
2021/05/14 07:12:53;;;;;;;;;;;;;;;20.91;38.70;99136.12;4401688;32;20004;-52
2021/05/14 07:15:19;;;;;;;;;;;;;;;20.89;38.73;99132.63;4410031;32;20742;-49
2021/05/14 07:17:45;;;;;;;;;;;;;;;20.92;38.74;99132.56;4418209;32;20004;-53
2021/05/14 07:20:11;;;;;;;;;;;;;;;20.94;38.71;99141.41;4410309;32;19961;-50
2021/05/14 07:22:37;;;;;;;;;;;;;;;20.93;38.79;99134.38;4403065;32;19973;-50
2021/05/14 07:25:03;;;;;;;;;;;;;;;20.88;38.91;99147.63;4406728;32;19950;-51
2021/05/14 07:27:29;;;;;;;;;;;;;;;20.88;38.94;99141.44;4416525;32;19962;-53
2021/05/14 07:29:55;;;;;;;;;;;;;;;20.89;38.96;99137.91;4413561;32;19950;-54
2021/05/14 07:32:21;;;;;;;;;;;;;;;20.87;39.02;99144.97;4405116;32;19958;-49
2021/05/14 07:34:47;;;;;;;;;;;;;;;20.87;39.03;99137.03;4417827;32;19954;-47
2021/05/14 07:37:13;;;;;;;;;;;;;;;20.93;38.96;99137.00;4417295;32;20382;-53
2021/05/14 07:39:39;;;;;;;;;;;;;;;20.92;38.99;99138.75;4416513;32;19950;-53
2021/05/14 07:42:05;;;;;;;;;;;;;;;20.90;39.05;99134.38;4401788;32;20256;-53
2021/05/14 07:44:31;;;;;;;;;;;;;;;20.89;39.10;99137.91;4401534;32;19970;-51
2021/05/14 07:46:57;;;;;;;;;;;;;;;20.88;39.12;99138.81;4416604;32;20040;-51
2021/05/14 07:49:23;;;;;;;;;;;;;;;20.88;39.14;99147.63;4416003;32;20081;-52
2021/05/14 07:51:49;;;;;;;;;;;;;;;20.79;39.44;99145.88;4417125;32;20362;-54
2021/05/14 07:54:15;;;;;;;;;;;;;;;20.92;39.20;99149.34;4416599;32;19946;-51
2021/05/14 07:56:40;;;;;;;;;;;;;;;20.99;39.15;99144.88;4405572;32;19946;-50
2021/05/14 07:59:08;;;;;;;;;;;;;;;21.01;39.14;99148.37;4400001;32;19950;-54
2021/05/14 08:01:34;;;;;;;;;;;;;;;20.86;39.48;99144.09;4412685;32;19954;-53
2021/05/14 08:04:00;;;;;;;;;;;;;;;21.04;39.10;99142.19;4404927;32;20414;-52
2021/05/14 08:06:26;;;;;;;;;;;;;;;21.00;39.29;99141.31;4409792;32;19954;-51
2021/05/14 08:08:52;;;;;;;;;;;;;;;20.98;39.33;99153.72;4417146;32;19953;-54
2021/05/14 08:11:18;;;;;;;;;;;;;;;21.05;39.19;99155.41;4408690;32;19953;-50
2021/05/14 08:13:44;;;;;;;;;;;;;;;21.12;39.04;99156.22;4401291;32;19955;-52
2021/05/14 08:16:09;;;;;;;;;;;;;;;21.12;39.14;99157.97;4407828;32;19982;-50
2021/05/14 08:18:35;;;;;;;;;;;;;;;21.23;38.97;99157.84;4416316;32;19960;-50
2021/05/14 08:21:01;;;;;;;;;;;;;;;21.17;39.12;99159.69;4412952;32;19954;-54
2021/05/14 08:23:27;;;;;;;;;;;;;;;21.21;39.13;99155.25;4401919;32;20037;-53
2021/05/14 08:25:53;;;;;;;;;;;;;;;21.27;38.98;99147.22;4406107;32;20282;-54
2021/05/14 08:28:19;;;;;;;;;;;;;;;21.20;39.26;99149.06;4417568;32;19979;-53
2021/05/14 08:30:45;;;;;;;;;;;;;;;21.25;39.13;99154.31;4413726;32;20029;-55
2021/05/14 08:33:11;;;;;;;;;;;;;;;21.24;39.37;99143.75;4401380;32;20339;-53
2021/05/14 08:35:37;;;;;;;;;;;;;;;21.25;39.28;99146.38;4402548;32;20002;-55
2021/05/14 08:38:03;;;;;;;;;;;;;;;21.28;39.23;99141.03;4413986;32;19958;-52
2021/05/14 08:40:28;;;;;;;;;;;;;;;21.33;39.10;99143.62;4412054;32;19968;-51
2021/05/14 08:42:54;;;;;;;;;;;;;;;21.37;39.13;99149.78;4416090;32;19973;-50
2021/05/14 08:45:20;;;;;;;;;;;;;;;21.28;39.28;99141.03;4416678;32;19946;-52
2021/05/14 08:47:46;;;;;;;;;;;;;;;21.34;39.20;99145.38;4415826;32;20385;-55
2021/05/14 08:50:13;;;;;;;;;;;;;;;21.32;39.07;99140.13;4415521;32;19964;-55
2021/05/14 08:52:39;;;;;;;;;;;;;;;21.30;39.21;99139.28;4405007;32;19966;-51
2021/05/14 08:55:05;;;;;;;;;;;;;;;21.34;39.19;99145.38;4400284;32;19947;-52
2021/05/14 08:57:31;;;;;;;;;;;;;;;21.42;39.11;99143.53;4412238;32;19964;-52
2021/05/14 08:59:57;;;;;;;;;;;;;;;21.36;39.17;99153.31;4415263;32;19954;-53
2021/05/14 09:02:22;;;;;;;;;;;;;;;21.49;38.93;99139.03;4405794;32;20047;-55
2021/05/14 09:04:49;;;;;;;;;;;;;;;21.57;38.85;99142.47;4401438;32;20283;-55
2021/05/14 09:07:15;;;;;;;;;;;;;;;21.49;38.99;99144.34;4408371;32;19972;-54
2021/05/14 09:09:41;;;;;;;;;;;;;;;21.61;38.69;99148.63;4415440;32;19954;-56
2021/05/14 09:12:08;;;;;;;;;;;;;;;21.63;38.76;99141.53;4409486;32;19951;-51
2021/05/14 09:14:34;;;;;;;;;;;;;;;21.58;38.88;99144.22;4401011;32;19957;-55
2021/05/14 09:17:00;;;;;;;;;;;;;;;21.47;39.08;99140.84;4405550;32;20001;-54
2021/05/14 09:19:26;;;;;;;;;;;;;;;21.59;38.88;99139.78;4415542;32;20018;-56
2021/05/14 09:21:52;;;;;;;;;;;;;;;21.65;38.75;99144.12;4412569;32;19958;-55
2021/05/14 09:24:18;;;;;;;;;;;;;;;21.57;38.86;99142.47;4409167;32;20010;-55
2021/05/14 09:26:44;;;;;;;;;;;;;;;21.47;39.13;99140.84;4415384;32;19979;-54
2021/05/14 09:29:10;;;;;;;;;;;;;;;21.46;39.13;99139.09;4414009;32;19946;-55
2021/05/14 09:31:36;;;;;;;;;;;;;;;21.46;39.25;99131.13;4414934;32;20004;-55
2021/05/14 09:34:02;;;;;;;;;;;;;;;21.55;38.95;99133.69;4416220;32;20010;-55
2021/05/14 09:36:28;;;;;;;;;;;;;;;21.59;38.97;99124.78;4416173;32;19996;-56
2021/05/14 09:38:54;;;;;;;;;;;;;;;21.64;38.83;99132.69;4414219;32;19987;-54
2021/05/14 09:41:20;;;;;;;;;;;;;;;21.66;38.78;99125.63;4415349;32;19954;-55
2021/05/14 09:43:46;;;;;;;;;;;;;;;21.59;38.73;99134.50;4401289;32;19986;-56
2021/05/14 09:46:11;;;;;;;;;;;;;;;21.49;39.06;99133.75;4399851;32;19946;-53
2021/05/14 09:48:37;;;;;;;;;;;;;;;21.45;39.05;99130.25;4412100;32;19955;-55
2021/05/14 09:51:03;;;;;;;;;;;;;;;21.38;39.23;99125.94;4417596;32;19962;-54
2021/05/14 09:53:31;;;;;;;;;;;;;;;21.41;39.17;99125.00;4406875;32;20613;-56
2021/05/14 09:56:00;;;;;;;;;;;;;;;21.46;39.20;99129.34;4404171;32;19977;-52
2021/05/14 09:58:27;;;;;;;;;;;;;;;21.44;39.23;99127.62;4405593;32;20008;-53
2021/05/14 10:00:54;;;;;;;;;;;;;;;21.56;39.03;99124.84;4402815;32;19970;-55
2021/05/14 10:03:20;;;;;;;;;;;;;;;21.63;38.69;99120.34;4406909;32;19946;-53
2021/05/14 10:05:45;;;;;;;;;;;;;;;21.63;38.78;99121.19;4405931;32;19994;-54
2021/05/14 10:08:12;;;;;;;;;;;;;;;21.69;38.74;99119.41;4414410;32;19954;-54
2021/05/14 10:10:38;;;;;;;;;;;;;;;21.62;38.86;99116.81;4418004;32;20343;-52
2021/05/14 10:13:04;;;;;;;;;;;;;;;21.62;38.95;99119.44;4416751;32;19958;-54
2021/05/14 10:15:32;;;;;;;;;;;;;;;21.74;38.75;99117.56;4418441;32;20275;-55
2021/05/14 10:17:58;;;;;;;;;;;;;;;21.81;38.48;99119.25;4419624;32;19973;-55
2021/05/14 10:20:24;;;;;;;;;;;;;;;21.80;38.64;99116.63;4416973;32;19995;-53
2021/05/14 10:22:50;;;;;;;;;;;;;;;21.81;38.53;99108.66;4418250;32;20327;-52
2021/05/14 10:25:20;;;;;;;;;;;;;;;21.82;38.55;99110.41;4417101;32;19958;-55
2021/05/14 10:27:46;;;;;;;;;;;;;;;21.88;38.35;99114.75;4416780;32;19989;-56
2021/05/14 10:30:12;;;;;;;;;;;;;;;21.84;38.53;99103.31;4416845;32;20317;-56
2021/05/14 10:32:38;;;;;;;;;;;;;;;21.84;38.50;99105.06;4418334;32;19946;-54
2021/05/14 10:35:04;;;;;;;;;;;;;;;21.85;38.49;99105.06;4419055;32;19983;-55
2021/05/14 10:37:29;;;;;;;;;;;;;;;21.86;38.47;99098.84;4418983;32;20357;-54
2021/05/14 10:39:55;;;;;;;;;;;;;;;21.82;38.54;99091.84;4417622;32;19974;-54
2021/05/14 10:42:21;;;;;;;;;;;;;;;21.78;38.68;99100.72;4419247;32;20046;-54
2021/05/14 10:44:47;;;;;;;;;;;;;;;21.88;38.38;99089.09;4418739;32;19980;-55
2021/05/14 10:47:13;;;;;;;;;;;;;;;21.88;38.48;99089.09;4417913;32;19969;-55
2021/05/14 10:49:39;;;;;;;;;;;;;;;21.85;38.49;99093.56;4419063;32;20367;-53
2021/05/14 10:52:05;;;;;;;;;;;;;;;21.88;38.44;99089.09;4419217;32;19953;-54
2021/05/14 10:54:31;;;;;;;;;;;;;;;21.97;38.19;99089.88;4419059;32;19950;-56
2021/05/14 10:56:57;;;;;;;;;;;;;;;21.84;38.30;99092.69;4419228;32;20290;-54
2021/05/14 10:59:23;;;;;;;;;;;;;;;21.85;38.30;99091.81;4418135;32;20042;-54
2021/05/14 11:01:48;;;;;;;;;;;;;;;21.84;38.48;99087.41;4418125;32;19984;-53
2021/05/14 11:04:14;;;;;;;;;;;;;;;21.88;38.42;99078.50;4418816;32;19968;-56
2021/05/14 11:06:40;;;;;;;;;;;;;;;21.94;38.36;99077.53;4419069;32;19953;-51
2021/05/14 11:09:06;;;;;;;;;;;;;;;21.95;38.42;99079.28;4418458;32;20381;-55
2021/05/14 11:11:32;;;;;;;;;;;;;;;21.92;38.33;99079.34;4419228;32;20004;-54
2021/05/14 11:13:58;;;;;;;;;;;;;;;21.92;38.47;99078.47;4419426;32;19950;-55
2021/05/14 11:16:24;;;;;;;;;;;;;;;21.93;38.37;99074.94;4418352;32;19981;-52
2021/05/14 11:18:50;;;;;;;;;;;;;;;21.93;38.36;99077.56;4418136;32;19934;-54
2021/05/14 11:21:16;;;;;;;;;;;;;;;21.99;38.22;99085.41;4419046;32;20039;-54
2021/05/14 11:23:43;;;;;;;;;;;;;;;22.01;38.25;99083.62;4418565;32;19942;-53
2021/05/14 11:26:08;;;;;;;;;;;;;;;22.03;38.17;99087.13;4418157;32;20303;-54
2021/05/14 11:28:34;;;;;;;;;;;;;;;22.01;38.40;99088.91;4416211;32;19964;-54
2021/05/14 11:31:00;;;;;;;;;;;;;;;22.02;38.12;99080.06;4418075;32;19995;-53
2021/05/14 11:33:27;;;;;;;;;;;;;;;22.02;38.29;99085.38;4418328;32;20016;-55
2021/05/14 11:35:53;;;;;;;;;;;;;;;22.05;38.14;99082.69;4419217;32;19950;-53
2021/05/14 11:38:19;;;;;;;;;;;;;;;22.02;38.29;99094.22;4418013;32;19987;-55
2021/05/14 11:40:49;;;;;;;;;;;;;;;21.98;38.34;99088.97;4418929;32;19954;-53
2021/05/14 11:43:15;;;;;;;;;;;;;;;22.03;38.23;99092.41;4416322;32;20026;-54
2021/05/14 11:45:41;;;;;;;;;;;;;;;22.05;38.22;99093.31;4417742;32;19951;-54
2021/05/14 11:48:07;;;;;;;;;;;;;;;22.05;38.29;99093.31;4414047;32;19962;-55
2021/05/14 11:50:33;;;;;;;;;;;;;;;22.08;38.04;99090.59;4414957;32;20294;-62
2021/05/14 11:52:59;;;;;;;;;;;;;;;21.98;38.22;99095.16;4417476;32;19946;-60
2021/05/14 11:55:25;;;;;;;;;;;;;;;21.59;37.26;99100.06;4417170;32;19954;-61
2021/05/14 11:57:51;;;;;;;;;;;;;;;20.83;38.86;99106.22;4418257;32;19956;-61
2021/05/14 12:00:16;;;;;;;;;;;;;;;20.64;39.82;99114.28;4408059;32;19954;-60
2021/05/14 12:02:43;;;;;;;;;;;;;;;20.39;41.09;99101.28;4404783;32;19995;-61
2021/05/14 12:05:08;;;;;;;;;;;;;;;20.28;41.42;99113.69;4418024;32;20398;-60
2021/05/14 12:07:34;;;;;;;;;;;;;;;20.07;41.92;99111.19;4418409;32;19964;-60
2021/05/14 12:10:00;;;;;;;;;;;;;;;19.89;41.69;99116.56;4411015;32;19965;-60
2021/05/14 12:12:26;;;;;;;;;;;;;;;19.94;42.02;99142.13;4401553;32;19958;-59
2021/05/14 12:14:52;;;;;;;;;;;;;;;20.00;42.24;99133.28;4406910;32;19973;-60
2021/05/14 12:17:18;;;;;;;;;;;;;;;20.08;40.60;99130.59;4417501;32;19964;-60
2021/05/14 12:19:44;;;;;;;;;;;;;;;19.73;41.09;99118.41;4414328;32;19964;-60
2021/05/14 12:22:10;;;;;;;;;;;;;;;19.91;41.76;99114.78;4402212;32;19954;-61
2021/05/14 12:24:35;;;;;;;;;;;;;;;19.78;42.93;99106.03;4405006;32;19985;-58
2021/05/14 12:27:05;;;;;;;;;;;;;;;19.85;42.97;99115.69;4418199;32;20293;-58
2021/05/14 12:29:31;;;;;;;;;;;;;;;20.10;41.43;99104.13;4415408;32;19961;-58
2021/05/14 12:31:57;;;;;;;;;;;;;;;20.25;41.07;99101.41;4401791;32;20009;-58
2021/05/14 12:34:26;;;;;;;;;;;;;;;19.92;42.30;99106.88;4412567;32;20104;-60
2021/05/14 12:36:52;;;;;;;;;;;;;;;19.96;40.62;99106.88;4402591;32;20011;-59
2021/05/14 12:39:17;;;;;;;;;;;;;;;20.26;40.49;99104.91;4401138;32;19963;-59
2021/05/14 12:41:43;;;;;;;;;;;;;;;20.17;40.48;99101.41;4416500;32;19962;-59
2021/05/14 12:44:09;;;;;;;;;;;;;;;19.97;37.08;99106.84;4416446;32;20252;-54
2021/05/14 12:46:35;;;;;;;;;;;;;;;20.18;38.92;99092.59;4417167;32;19950;-58